createdAt,value
2023-04-12T00:04:04.846Z,98167.20
2023-04-12T00:14:31.304Z,98174.15
2023-04-12T00:24:57.222Z,98175.23
2023-04-12T00:35:22.929Z,98176.30
2023-04-12T00:45:49.434Z,98168.33
2023-04-12T00:56:16.029Z,98156.95
2023-04-12T01:06:56.331Z,98153.30
2023-04-12T01:17:27.685Z,98149.79
2023-04-12T01:27:55.656Z,98154.60
2023-04-12T01:38:22.863Z,98155.83
2023-04-12T01:48:53.109Z,98159.83
2023-04-12T01:59:20.166Z,98149.80
2023-04-12T02:09:46.165Z,98146.66
2023-04-12T02:20:13.914Z,98145.45
2023-04-12T02:30:41.731Z,98137.17
2023-04-12T02:41:08.291Z,98130.64
2023-04-12T02:51:34.126Z,98133.59
2023-04-12T03:02:00.194Z,98134.81
2023-04-12T03:12:26.275Z,98142.09
2023-04-12T03:22:52.168Z,98143.80
2023-04-12T03:33:17.998Z,98138.27
2023-04-12T03:43:43.787Z,98134.60
2023-04-12T03:54:09.868Z,98133.72
2023-04-12T04:04:38.062Z,98126.36
2023-04-12T04:15:07.268Z,98114.27
2023-04-12T04:25:33.716Z,98112.20
2023-04-12T04:35:59.793Z,98109.95
2023-04-12T04:46:25.811Z,98126.34
2023-04-12T04:56:51.338Z,98135.52
2023-04-12T05:07:17.012Z,98143.79
2023-04-12T05:17:43.502Z,98156.62
2023-04-12T05:28:14.486Z,98166.52
2023-04-12T05:38:40.597Z,98161.77
2023-04-12T05:49:06.217Z,98153.10
2023-04-12T05:59:32.308Z,98153.55
2023-04-12T06:09:58.127Z,98153.52
2023-04-12T06:20:24.297Z,98143.42
2023-04-12T06:30:50.479Z,98136.73
2023-04-12T06:41:16.557Z,98124.79
2023-04-12T06:51:42.248Z,98114.58
2023-04-12T07:02:08.367Z,98103.77
2023-04-12T07:12:34.880Z,98101.86
2023-04-12T07:23:00.627Z,98101.50
2023-04-12T07:33:28.193Z,98100.27
2023-04-12T07:43:55.073Z,98099.30
2023-04-12T07:54:21.717Z,98097.67
2023-04-12T08:04:48.365Z,98088.69
2023-04-12T08:15:14.456Z,98083.81
2023-04-12T08:25:40.781Z,98087.77
2023-04-12T08:36:08.275Z,98082.15
2023-04-12T08:46:36.751Z,98072.34
2023-04-12T08:57:05.036Z,98066.89
2023-04-12T09:07:31.453Z,98053.77
2023-04-12T09:18:08.773Z,98038.05
2023-04-12T09:28:34.283Z,98024.64
2023-04-12T09:39:04.546Z,98015.02
2023-04-12T09:49:41.486Z,98007.54
2023-04-12T10:00:14.431Z,97996.68
2023-04-12T10:10:40.706Z,97982.41
2023-04-12T10:21:08.501Z,97972.76
2023-04-12T10:31:35.016Z,97973.79
2023-04-12T10:42:18.712Z,97969.41
2023-04-12T10:52:44.262Z,97958.23
2023-04-12T11:03:12.868Z,97941.19
2023-04-12T11:13:40.336Z,97932.40
2023-04-12T11:24:07.113Z,97923.41
2023-04-12T11:34:37.603Z,97910.02
2023-04-12T11:45:11.334Z,97908.04
2023-04-12T11:55:41.593Z,97899.96
2023-04-12T12:06:08.832Z,97891.27
2023-04-12T12:16:36.188Z,97875.58
2023-04-12T12:27:05.619Z,97858.87
2023-04-12T12:37:32.300Z,97847.14
2023-04-12T12:47:59.934Z,97839.09
2023-04-12T12:58:26.119Z,97827.40
2023-04-12T13:08:52.667Z,97814.28
2023-04-12T13:19:18.174Z,97806.02
2023-04-12T13:29:44.454Z,97794.90
2023-04-12T13:40:12.002Z,97776.70
2023-04-12T13:50:37.952Z,97769.23
2023-04-12T14:01:04.074Z,97767.53
2023-04-12T14:11:29.862Z,97758.58
2023-04-12T14:21:56.903Z,97757.70
2023-04-12T14:32:22.901Z,97747.16
2023-04-12T14:42:48.939Z,97740.77
2023-04-12T14:53:16.586Z,97734.63
2023-04-12T15:03:42.863Z,97720.05
2023-04-12T15:14:08.875Z,97709.65
2023-04-12T15:24:34.849Z,97704.52
2023-04-12T15:35:04.718Z,97693.16
2023-04-12T15:45:30.961Z,97687.92
2023-04-12T15:55:57.967Z,97691.89
2023-04-12T16:06:25.439Z,97679.41
2023-04-12T16:16:51.666Z,97673.34
2023-04-12T16:27:17.542Z,97668.15
2023-04-12T16:37:43.701Z,97660.98
2023-04-12T16:48:09.578Z,97649.55
2023-04-12T16:58:35.290Z,97638.71
2023-04-12T17:09:00.975Z,97635.90
2023-04-12T17:19:27.361Z,97633.65
2023-04-12T17:29:54.641Z,97631.98
2023-04-12T17:40:20.853Z,97637.54
2023-04-12T17:50:47.196Z,97651.89
2023-04-12T18:01:13.452Z,97653.13
2023-04-12T18:11:39.882Z,97652.49
2023-04-12T18:22:05.895Z,97670.16
2023-04-12T18:32:32.253Z,97664.13
2023-04-12T18:42:59.530Z,97661.32
2023-04-12T18:53:25.230Z,97666.02
2023-04-12T19:03:51.647Z,97671.03
2023-04-12T19:14:17.597Z,97670.80
2023-04-12T19:24:43.503Z,97675.84
2023-04-12T19:35:11.623Z,97673.27
2023-04-12T19:45:38.106Z,97676.15
2023-04-12T19:56:06.294Z,97668.95
2023-04-12T20:06:32.129Z,97654.20
2023-04-12T20:16:58.533Z,97647.30
2023-04-12T20:27:24.283Z,97646.91
2023-04-12T20:37:51.451Z,97640.94
2023-04-12T20:48:17.269Z,97627.86
2023-04-12T20:58:44.451Z,97631.91
2023-04-12T21:09:10.402Z,97626.52
2023-04-12T21:19:41.092Z,97621.77
2023-04-12T21:30:09.455Z,97618.73
2023-04-12T21:40:33.776Z,97610.17
2023-04-12T21:50:59.798Z,97608.91
2023-04-12T22:01:26.154Z,97609.50
2023-04-12T22:11:51.817Z,97603.36
2023-04-12T22:22:17.733Z,97602.15
2023-04-12T22:32:43.854Z,97596.46
2023-04-12T22:43:18.333Z,97592.38
2023-04-12T22:53:44.354Z,97577.39
2023-04-12T23:04:11.570Z,97559.00
2023-04-12T23:14:38.863Z,97544.40
2023-04-12T23:25:05.241Z,97529.13
2023-04-12T23:35:31.182Z,97525.32
2023-04-12T23:45:58.206Z,97516.73
2023-04-12T23:56:23.899Z,97507.80
